Kenesaw, Nebraska
Current Conditions -  °F | °C
As of 2:53 PM on Thursday 20 Nov 2014 (Local Time) from KHSI Reporting Station
Clear Clear  
Wind Chill: 32°   Ceiling: Unl
Heat Index: 38°   Visibility: 10mi
Dew Point: 19°   Wind: 8mph
Humidity: 47%   Direction: 150°SSE
Pressure: 30.09"   Gusts: NA
Location:  40.62°N, 98.66°W
Report Text: KHSI 202053Z AUTO 15007KT 10SM CLR 03/M07 A3009 RMK AO2 SLP210 T00331072 56017
Loading
Personal Weather Stations






























Interactive Weather Map New forecast layout! Learn more

10-Day Weather Forecast

Advertisements
Track Severe Weather on mobile